Stations météo

réclame
Mon MeteoGroup
Dunstaffnage, Grande-Bretagne (99006): Température de l'air & dewpoint: 19.09.2018 22:00:00 - 25.09.2018 22:00:00 (BST)Dunstaffnage, Grande-Bretagne (99006): Température de l'air -20cm: 19.09.2018 22:00:00 - 25.09.2018 22:00:00 (BST)Dunstaffnage, Grande-Bretagne (99006): Vitesse du vent & gusts: 19.09.2018 22:00:00 - 25.09.2018 22:00:00 (BST)Dunstaffnage, Grande-Bretagne (99006): Direction du vent: 19.09.2018 22:00:00 - 25.09.2018 22:00:00 (BST)Dunstaffnage, Grande-Bretagne (99006): Quantités de précipitations: 19.09.2018 22:00:00 - 25.09.2018 22:00:00 (BST)
Date & Time tt [°C] td [°C] tt -20cm [°C] ff [km/h] ff [knt] fx [km/h] fx [knt] dd rr [mm]
25.09.2018 22:00:00 - - - - - - - - -
25.09.2018 21:00:00 13,1 12,4 - 22 12 - - SSW 0,6
25.09.2018 20:00:00 12,4 11,7 - 18 10 48 26 S 1,0
25.09.2018 19:00:00 12,0 11,2 - 26 14 48 26 S 1,0
25.09.2018 18:00:00 11,6 10,7 - 28 15 46 25 S 0,8
25.09.2018 17:00:00 11,2 10,4 - 18 10 - - S 0,8
25.09.2018 16:00:00 10,8 9,9 - 18 10 - - S 0,4
25.09.2018 15:00:00 10,0 9,1 - 11 6 - - SSE 1,8
25.09.2018 14:00:00 9,4 8,3 - 9 5 - - SSE 1,6
25.09.2018 13:00:00 9,1 7,8 - 9 5 - - SSE 1,0
25.09.2018 12:00:00 9,7 7,9 - 13 7 - - S 0,6
25.09.2018 11:00:00 9,5 6,5 - 16 9 - - S 0,2
25.09.2018 10:00:00 10,9 5,9 11,5 18 10 - - S 0,0
25.09.2018 09:00:00 10,6 6,3 - 15 8 - - S 0,0
25.09.2018 08:00:00 10,0 6,4 - 9 5 - - SE 0,0
25.09.2018 07:00:00 9,6 7,0 - 13 7 - - SE 0,0
25.09.2018 06:00:00 9,5 7,3 - 11 6 - - SE 0,0
25.09.2018 05:00:00 9,9 7,6 - 13 7 - - SSE 0,0
25.09.2018 04:00:00 10,0 7,7 - 13 7 - - S 0,0
25.09.2018 03:00:00 9,2 7,8 - 9 5 - - SSE 0,2
25.09.2018 02:00:00 10,0 7,9 - 9 5 - - SW 0,2
25.09.2018 01:00:00 10,0 8,1 - 2 1 - - S 0,0
25.09.2018 00:00:00 9,5 8,1 - 4 2 - - S 0,0
24.09.2018 23:00:00 10,6 7,8 - 4 2 - - SW 0,0
24.09.2018 22:00:00 10,7 8,4 - 8 4 - - WSW 0,0
24.09.2018 21:00:00 11,1 7,9 - 8 4 - - SW 0,0
24.09.2018 20:00:00 11,2 8,0 - 11 6 - - WSW 0,0
24.09.2018 19:00:00 11,2 7,9 - 9 5 - - SW 0,0
24.09.2018 18:00:00 12,4 7,4 - 18 10 - - W 0,0
24.09.2018 17:00:00 12,8 8,3 - 13 7 - - WSW 0,0
24.09.2018 16:00:00 15,4 9,5 - 16 9 - - W 0,0
24.09.2018 15:00:00 12,8 7,4 - 18 10 - - W 0,0
24.09.2018 14:00:00 12,1 7,6 - 11 6 - - WSW 0,0
24.09.2018 13:00:00 12,5 8,7 - 13 7 - - WSW 0,0
24.09.2018 12:00:00 13,2 7,3 - 18 10 - - W 0,0
24.09.2018 11:00:00 12,5 7,8 - 15 8 - - W 0,0
24.09.2018 10:00:00 11,6 7,8 11,2 11 6 - - WSW 0,0
24.09.2018 09:00:00 9,3 6,7 - 9 5 - - SW 0,0
24.09.2018 08:00:00 8,1 5,8 - 5 3 - - SW 0,0
24.09.2018 07:00:00 8,3 5,9 - 9 5 - - SW 0,0
24.09.2018 06:00:00 8,3 6,8 - 11 6 - - WSW 0,0
24.09.2018 05:00:00 8,1 6,2 - 13 7 - - W 0,6
24.09.2018 04:00:00 7,7 5,5 - 5 3 - - WSW 0,2
24.09.2018 03:00:00 8,6 5,7 - 9 5 - - WNW 0,0
24.09.2018 02:00:00 8,9 6,1 - 22 12 - - W 0,0
24.09.2018 01:00:00 7,4 4,3 - 9 5 - - SW 0,2
24.09.2018 00:00:00 8,3 4,6 - 11 6 - - WSW 0,0
23.09.2018 23:00:00 9,3 3,7 - 13 7 - - NW 0,0
23.09.2018 22:00:00 9,0 5,0 - 11 6 - - WNW 0,0
23.09.2018 21:00:00 9,7 4,8 - 15 8 - - NW 0,0
23.09.2018 20:00:00 9,9 4,0 - 24 13 - - NW 0,0
23.09.2018 19:00:00 10,4 5,6 - 24 13 - - WNW 0,0
23.09.2018 18:00:00 11,1 5,5 - 24 13 - - WNW 0,0
23.09.2018 17:00:00 12,0 5,9 - 18 10 - - WNW 0,0
23.09.2018 16:00:00 11,1 5,3 - 22 12 46 25 NW 0,0
23.09.2018 15:00:00 10,4 5,4 - 24 13 48 26 WNW 0,0
23.09.2018 14:00:00 11,0 5,1 - 21 11 - - WNW 0,2
23.09.2018 13:00:00 10,3 6,5 - 16 9 - - WNW 0,0
23.09.2018 12:00:00 11,2 4,3 - 15 8 - - NW 0,0
23.09.2018 11:00:00 10,6 5,9 - 11 6 - - NW 0,0
23.09.2018 10:00:00 9,9 6,9 11,7 4 2 - - WNW 0,0
23.09.2018 09:00:00 8,2 6,7 - 9 5 - - WNW 0,2
23.09.2018 08:00:00 7,0 5,5 - 2 1 - - SSW 0,0
23.09.2018 07:00:00 7,6 6,6 - 16 9 - - W 0,0
23.09.2018 06:00:00 6,4 5,9 - 8 4 - - SW 0,0
23.09.2018 05:00:00 6,8 6,3 - 2 1 - - SSW 0,4
23.09.2018 04:00:00 6,1 5,6 - 0 0 - - N 0,0
23.09.2018 03:00:00 6,1 5,4 - 2 1 - - WSW 0,0
23.09.2018 02:00:00 4,6 3,4 - 4 2 - - WSW 0,0
23.09.2018 01:00:00 6,4 3,8 - 4 2 - - WSW 0,0
23.09.2018 00:00:00 9,0 4,5 - 5 3 - - NW 0,0
22.09.2018 23:00:00 8,1 5,5 - 4 2 - - WSW 0,0
22.09.2018 22:00:00 9,1 6,2 - 9 5 - - W 0,0
22.09.2018 21:00:00 8,7 5,1 - 11 6 - - W 0,0
22.09.2018 20:00:00 10,1 4,8 - 13 7 - - WNW 0,0
22.09.2018 19:00:00 10,3 5,5 - 18 10 - - W 0,0
22.09.2018 18:00:00 12,2 5,0 - 22 12 - - W 0,0
22.09.2018 17:00:00 11,2 5,7 - 22 12 - - W 0,0
22.09.2018 16:00:00 10,4 6,3 - 24 13 - - W 0,0
22.09.2018 15:00:00 12,5 5,4 - 26 14 - - W 0,0
22.09.2018 14:00:00 12,7 6,4 - 21 11 - - W 0,0
22.09.2018 13:00:00 12,2 5,9 - 22 12 - - W 0,0
22.09.2018 12:00:00 12,8 6,9 - 22 12 - - W 0,0
22.09.2018 11:00:00 11,1 6,3 - 26 14 - - W 0,0
22.09.2018 10:00:00 10,2 5,9 11,7 22 12 - - W 0,0
22.09.2018 09:00:00 9,9 5,2 - 26 14 - - W 0,0
22.09.2018 08:00:00 9,1 5,8 - 26 14 - - W 0,0
22.09.2018 07:00:00 9,0 5,4 - 26 14 - - W 0,0
22.09.2018 06:00:00 9,4 5,5 - 28 15 50 27 WNW 0,0
22.09.2018 05:00:00 9,3 5,6 - 28 15 46 25 W 0,0
22.09.2018 04:00:00 8,9 6,1 - 22 12 - - W 0,6
22.09.2018 03:00:00 9,8 6,3 - 22 12 50 27 W 0,0
22.09.2018 02:00:00 8,9 5,8 - 26 14 48 26 W 0,2
22.09.2018 01:00:00 9,5 5,4 - 28 15 46 25 W 0,0
22.09.2018 00:00:00 9,6 6,2 - 24 13 50 27 W 0,0
21.09.2018 23:00:00 9,2 6,3 - 28 15 54 29 W 0,6
21.09.2018 22:00:00 9,5 5,7 - 31 17 54 29 W 0,2
21.09.2018 21:00:00 10,0 5,9 - 26 14 - - W 0,0
21.09.2018 20:00:00 9,3 6,8 - 35 19 54 29 W 0,2
21.09.2018 19:00:00 10,4 7,1 - 22 12 - - W 0,0
21.09.2018 18:00:00 12,0 6,7 - 26 14 - - W 0,0
21.09.2018 17:00:00 12,5 6,2 - 26 14 - - W 0,0
21.09.2018 16:00:00 12,6 6,4 - 24 13 - - WNW 0,0
21.09.2018 15:00:00 12,0 6,8 - 21 11 - - NW 0,0
21.09.2018 14:00:00 11,2 6,6 - 34 18 52 28 NW 0,0
21.09.2018 13:00:00 11,2 6,7 - 28 15 - - NW 0,2
21.09.2018 12:00:00 11,6 7,1 - 22 12 - - NW 0,0
21.09.2018 11:00:00 12,1 9,4 - 15 8 - - W 0,0
21.09.2018 10:00:00 9,3 7,8 12,0 8 4 - - SSW 0,2
21.09.2018 09:00:00 7,8 7,2 - 8 4 - - SW 0,0
21.09.2018 08:00:00 5,6 4,9 - 8 4 - - SW 0,0
21.09.2018 07:00:00 6,5 5,6 - 9 5 - - SSW 0,2
21.09.2018 06:00:00 7,6 6,8 - 9 5 - - SW 1,4
21.09.2018 05:00:00 7,3 6,2 - 5 3 - - SW 0,2
21.09.2018 04:00:00 7,7 6,1 - 5 3 - - SW 0,0
21.09.2018 03:00:00 7,7 7,0 - 8 4 - - SW 0,0
21.09.2018 02:00:00 7,1 6,5 - 5 3 - - SW 0,0
21.09.2018 01:00:00 7,5 6,7 - 8 4 - - E 0,0
21.09.2018 00:00:00 7,8 6,9 - 11 6 - - S 0,8
20.09.2018 23:00:00 7,9 6,9 - 15 8 - - SSE 6,6
20.09.2018 22:00:00 8,9 6,8 - 13 7 - - SE 0,0
20.09.2018 21:00:00 9,0 7,2 - 13 7 - - ESE 0,0
20.09.2018 20:00:00 9,6 7,6 - 4 2 - - SSW 0,2
20.09.2018 19:00:00 10,7 8,0 - 4 2 - - SSE 0,0
20.09.2018 18:00:00 11,8 6,4 - 9 5 - - SW 0,0
20.09.2018 17:00:00 12,4 7,2 - 16 9 - - WSW 0,0
20.09.2018 16:00:00 12,6 7,4 - 21 11 - - WSW 0,0
20.09.2018 15:00:00 13,0 7,3 - 22 12 - - WSW 0,0
20.09.2018 14:00:00 12,7 7,5 - 22 12 - - WSW 0,0
20.09.2018 13:00:00 13,0 7,3 - 26 14 48 26 WSW 0,0
20.09.2018 12:00:00 12,7 8,0 - 28 15 48 26 WSW 0,0
20.09.2018 11:00:00 11,6 9,1 - 24 13 48 26 WSW 0,4
20.09.2018 10:00:00 11,4 7,8 12,4 24 13 61 33 WSW 1,2
20.09.2018 09:00:00 10,7 8,3 - 26 14 67 36 WSW 0,4
20.09.2018 08:00:00 10,8 6,6 - 34 18 52 28 WSW 0,0
20.09.2018 07:00:00 10,1 7,8 - 29 16 65 35 WSW 0,6
20.09.2018 06:00:00 10,9 6,1 - 31 17 54 29 WSW 0,0
20.09.2018 05:00:00 10,8 7,2 - 28 15 52 28 WSW 0,0
20.09.2018 04:00:00 9,4 7,7 - 31 17 59 32 WSW 2,0
20.09.2018 03:00:00 10,1 7,8 - 22 12 72 39 WSW 0,6
20.09.2018 02:00:00 10,9 7,4 - 22 12 - - WSW 0,0
20.09.2018 01:00:00 10,2 7,5 - 22 12 57 31 WSW 0,2
20.09.2018 00:00:00 8,2 6,2 - 54 29 83 45 W 2,0
19.09.2018 23:00:00 9,9 7,1 - 18 10 63 34 SSW 0,0
19.09.2018 22:00:00 9,4 7,9 - 31 17 68 37 WSW 1,2

tt = Température de l'air
td = dewpoint
tt -20cm = Température de l'air -20cm
ff = Vitesse du vent
fx = gusts
dd = Direction du vent
rr = Quantités de précipitations

stations d'obs. à proximité